Time;durP1;ratioP1;P1;durP2;ratioP2;P2;SDS_P1;SDS_P2;PMS_P1;PMS_P2;Temp;Humidity;BMP_temperature;BMP_pressure;BME280_temperature;BME280_humidity;BME280_pressure;Samples;Min_cycle;Max_cycle;Signal;HPM_P1;HPM_P2
2022/03/19 00:00:42;;;;;;;21.97;14.87;;;;;;;;;;2064054;28;20174;-63
2022/03/19 00:01:42;;;;;;;22.17;15.17;;;;;;;;;;2066274;28;20204;-62
2022/03/19 00:02:43;;;;;;;28.03;14.90;;;;;;;;;;2065319;28;20256;-63
2022/03/19 00:03:43;;;;;;;18.67;13.73;;;;;;;;;;2058534;28;20577;-62
2022/03/19 00:04:43;;;;;;;26.53;15.27;;;;;;;;;;2066285;28;20181;-64
2022/03/19 00:05:45;;;;;;;25.03;14.97;;;;;;;;;;2075808;28;20181;-63
2022/03/19 00:06:46;;;;;;;23.57;14.40;;;;;;;;;;2075745;28;20165;-64
2022/03/19 00:07:47;;;;;;;24.60;15.17;;;;;;;;;;2067758;28;20750;-66
2022/03/19 00:08:47;;;;;;;21.30;13.85;;;;;;;;;;2068098;28;20234;-63
2022/03/19 00:09:47;;;;;;;22.37;13.80;;;;;;;;;;2076381;28;20169;-65
2022/03/19 00:10:47;;;;;;;22.47;14.47;;;;;;;;;;2076184;28;20213;-60
2022/03/19 00:11:48;;;;;;;24.27;15.57;;;;;;;;;;2077086;28;20189;-66
2022/03/19 00:12:49;;;;;;;22.23;15.30;;;;;;;;;;2076500;28;20173;-64
2022/03/19 00:13:49;;;;;;;23.83;15.33;;;;;;;;;;2076828;28;20181;-66
2022/03/19 00:14:50;;;;;;;22.03;16.47;;;;;;;;;;2075430;28;20169;-64
2022/03/19 00:15:50;;;;;;;28.73;16.10;;;;;;;;;;2066085;28;20693;-63
2022/03/19 00:16:50;;;;;;;23.73;15.83;;;;;;;;;;2065746;28;20244;-62
2022/03/19 00:17:54;;;;;;;30.93;17.13;;;;;;;;;;2074573;28;20188;-62
2022/03/19 00:18:54;;;;;;;27.97;17.33;;;;;;;;;;2065768;28;20188;-63
2022/03/19 00:19:54;;;;;;;23.77;15.90;;;;;;;;;;2064731;28;20272;-64
2022/03/19 00:20:55;;;;;;;32.83;15.67;;;;;;;;;;2072983;28;20189;-65
2022/03/19 00:21:55;;;;;;;23.33;16.73;;;;;;;;;;2073493;28;20185;-63
2022/03/19 00:22:55;;;;;;;27.37;17.07;;;;;;;;;;2074328;28;20211;-63
2022/03/19 00:23:56;;;;;;;34.53;16.90;;;;;;;;;;2070525;28;20325;-66
2022/03/19 00:24:57;;;;;;;26.73;15.93;;;;;;;;;;2065180;28;20854;-61
2022/03/19 00:25:58;;;;;;;24.60;16.30;;;;;;;;;;2065021;28;20177;-62
2022/03/19 00:26:58;;;;;;;23.60;16.13;;;;;;;;;;2074379;28;20640;-65
2022/03/19 00:27:58;;;;;;;24.60;16.23;;;;;;;;;;2065076;28;20213;-65
2022/03/19 00:28:58;;;;;;;23.07;16.53;;;;;;;;;;2064801;28;20208;-64
2022/03/19 00:29:59;;;;;;;25.10;15.17;;;;;;;;;;2065104;28;20181;-60
2022/03/19 00:30:59;;;;;;;27.03;16.17;;;;;;;;;;2064772;28;20186;-63
2022/03/19 00:32:00;;;;;;;25.23;15.97;;;;;;;;;;2072756;28;20830;-62
2022/03/19 00:33:00;;;;;;;28.00;16.67;;;;;;;;;;2074488;28;20181;-63
2022/03/19 00:34:00;;;;;;;25.33;17.17;;;;;;;;;;2073899;28;20203;-63
2022/03/19 00:35:01;;;;;;;26.90;17.23;;;;;;;;;;2065690;28;20185;-63
2022/03/19 00:36:02;;;;;;;25.13;16.80;;;;;;;;;;2065437;28;20697;-64
2022/03/19 00:37:02;;;;;;;24.10;16.17;;;;;;;;;;2065065;28;20611;-62
2022/03/19 00:38:04;;;;;;;20.43;15.73;;;;;;;;;;2065170;28;20269;-61
2022/03/19 00:39:04;;;;;;;27.00;16.43;;;;;;;;;;2074399;28;20633;-64
2022/03/19 00:40:05;;;;;;;23.27;17.00;;;;;;;;;;2073967;28;20191;-65
2022/03/19 00:41:07;;;;;;;30.27;16.27;;;;;;;;;;2074104;28;20564;-64
2022/03/19 00:42:07;;;;;;;25.70;15.70;;;;;;;;;;2065488;28;20181;-64
2022/03/19 00:43:08;;;;;;;28.67;16.97;;;;;;;;;;2065609;28;20190;-61
2022/03/19 00:44:08;;;;;;;27.70;17.47;;;;;;;;;;2073735;28;20176;-65
2022/03/19 00:45:09;;;;;;;24.03;17.23;;;;;;;;;;2065482;28;20244;-64
2022/03/19 00:46:09;;;;;;;24.63;17.83;;;;;;;;;;2065513;28;20709;-64
2022/03/19 00:47:10;;;;;;;24.23;17.60;;;;;;;;;;2073584;28;20177;-64
2022/03/19 00:48:10;;;;;;;26.07;17.97;;;;;;;;;;2073839;28;20514;-64
2022/03/19 00:49:10;;;;;;;26.00;17.93;;;;;;;;;;2073803;28;20177;-62
2022/03/19 00:50:11;;;;;;;24.00;16.40;;;;;;;;;;2065031;28;20682;-62
2022/03/19 00:51:11;;;;;;;29.63;17.03;;;;;;;;;;2065221;28;20240;-65
2022/03/19 00:52:11;;;;;;;24.13;15.90;;;;;;;;;;2074168;28;20200;-63
2022/03/19 00:53:12;;;;;;;27.87;17.23;;;;;;;;;;2074017;28;20575;-64
2022/03/19 00:54:15;;;;;;;28.40;18.97;;;;;;;;;;2073729;28;20177;-64
2022/03/19 00:55:15;;;;;;;24.47;18.47;;;;;;;;;;2074005;28;20200;-64
2022/03/19 00:56:15;;;;;;;26.20;18.47;;;;;;;;;;2073979;28;20180;-65
2022/03/19 00:57:16;;;;;;;29.30;20.17;;;;;;;;;;2073983;28;20448;-62
2022/03/19 00:58:16;;;;;;;32.27;19.87;;;;;;;;;;2074129;28;20173;-66
2022/03/19 00:59:17;;;;;;;29.80;21.23;;;;;;;;;;2070172;28;20276;-62
2022/03/19 01:00:24;;;;;;;32.67;20.13;;;;;;;;;;2066626;28;20181;-64
2022/03/19 01:01:24;;;;;;;33.03;23.27;;;;;;;;;;2060238;28;20209;-63
2022/03/19 01:02:26;;;;;;;34.87;23.20;;;;;;;;;;2063936;28;20730;-64
2022/03/19 01:03:26;;;;;;;32.03;20.37;;;;;;;;;;2056752;28;20174;-64
2022/03/19 01:04:26;;;;;;;28.30;18.43;;;;;;;;;;2064477;28;20284;-65
2022/03/19 01:05:27;;;;;;;30.33;19.30;;;;;;;;;;2073254;28;20617;-65
2022/03/19 01:06:27;;;;;;;31.47;19.10;;;;;;;;;;2073882;28;20176;-64
2022/03/19 01:07:27;;;;;;;35.30;21.10;;;;;;;;;;2073534;28;20185;-64
2022/03/19 01:08:28;;;;;;;26.47;18.73;;;;;;;;;;2073664;28;20202;-62
2022/03/19 01:09:28;;;;;;;29.47;19.50;;;;;;;;;;2065038;28;20696;-63
2022/03/19 01:10:29;;;;;;;34.53;20.47;;;;;;;;;;2065108;28;20180;-62
2022/03/19 01:11:29;;;;;;;23.73;17.53;;;;;;;;;;2065240;28;20757;-61
2022/03/19 01:12:29;;;;;;;29.67;19.53;;;;;;;;;;2057310;28;20174;-64
2022/03/19 01:13:29;;;;;;;29.27;18.67;;;;;;;;;;2065129;28;20248;-59
2022/03/19 01:14:30;;;;;;;27.93;17.93;;;;;;;;;;2064733;28;20269;-63
2022/03/19 01:15:30;;;;;;;25.37;18.07;;;;;;;;;;2065272;28;20169;-64
2022/03/19 01:16:31;;;;;;;28.13;18.50;;;;;;;;;;2073374;28;20196;-65
2022/03/19 01:17:31;;;;;;;32.60;19.87;;;;;;;;;;2073867;28;20259;-66
2022/03/19 01:18:31;;;;;;;24.57;17.00;;;;;;;;;;2074128;28;20208;-62
2022/03/19 01:20:50;;;;;;;29.27;17.60;;;;;;;;;;2074005;28;20245;-63
2022/03/19 01:21:51;;;;;;;27.37;17.80;;;;;;;;;;2073854;28;20659;-64
2022/03/19 01:22:51;;;;;;;30.20;17.27;;;;;;;;;;2074388;28;20184;-60
2022/03/19 01:23:51;;;;;;;30.27;17.97;;;;;;;;;;2076729;28;20173;-66
2022/03/19 01:24:52;;;;;;;32.23;17.93;;;;;;;;;;2076406;28;20172;-63
2022/03/19 01:25:52;;;;;;;23.50;16.77;;;;;;;;;;2076770;28;20173;-61
2022/03/19 01:26:52;;;;;;;24.30;16.20;;;;;;;;;;2076545;28;20173;-62
2022/03/19 01:27:53;;;;;;;23.80;16.10;;;;;;;;;;2077226;28;20173;-62
2022/03/19 01:28:53;;;;;;;22.90;16.73;;;;;;;;;;2076360;28;20260;-66
2022/03/19 01:29:54;;;;;;;28.47;18.03;;;;;;;;;;2068356;28;20170;-64
2022/03/19 01:30:54;;;;;;;19.07;15.57;;;;;;;;;;2068120;28;20226;-64
2022/03/19 01:31:54;;;;;;;26.33;16.63;;;;;;;;;;2076444;28;20263;-63
2022/03/19 01:32:54;;;;;;;21.40;15.17;;;;;;;;;;2078717;28;20252;-63
2022/03/19 01:33:55;;;;;;;24.10;16.30;;;;;;;;;;2075354;28;20200;-63
2022/03/19 01:34:55;;;;;;;26.20;16.13;;;;;;;;;;2077520;28;20180;-63
2022/03/19 01:35:55;;;;;;;21.77;15.33;;;;;;;;;;2077939;28;20215;-63
2022/03/19 01:36:56;;;;;;;19.87;15.17;;;;;;;;;;2077279;28;20558;-61
2022/03/19 01:37:56;;;;;;;19.67;15.83;;;;;;;;;;2077376;28;20256;-65
2022/03/19 01:38:56;;;;;;;21.73;16.23;;;;;;;;;;2075657;28;20235;-63
2022/03/19 01:39:57;;;;;;;18.20;15.73;;;;;;;;;;2073873;28;20259;-62
2022/03/19 01:40:58;;;;;;;26.83;15.93;;;;;;;;;;2073685;28;20172;-61
2022/03/19 01:41:59;;;;;;;27.03;15.73;;;;;;;;;;2073912;28;20180;-60
2022/03/19 01:43:00;;;;;;;20.73;15.37;;;;;;;;;;2073865;28;20812;-61
2022/03/19 01:44:00;;;;;;;20.57;14.43;;;;;;;;;;2073353;28;20672;-64
2022/03/19 01:45:03;;;;;;;21.23;15.13;;;;;;;;;;2072855;28;20165;-62
2022/03/19 01:46:03;;;;;;;15.87;13.50;;;;;;;;;;2065159;28;20181;-62
2022/03/19 01:47:10;;;;;;;20.50;14.13;;;;;;;;;;2056750;28;20582;-61
2022/03/19 01:48:10;;;;;;;21.70;13.63;;;;;;;;;;2062463;28;20193;-62
2022/03/19 01:49:10;;;;;;;22.70;13.53;;;;;;;;;;2073380;28;20204;-64
2022/03/19 01:50:11;;;;;;;20.93;14.27;;;;;;;;;;2073709;28;20219;-62
2022/03/19 01:51:12;;;;;;;18.57;13.47;;;;;;;;;;2073505;28;20211;-63
2022/03/19 01:52:12;;;;;;;16.07;13.80;;;;;;;;;;2073839;28;20168;-64
2022/03/19 01:53:12;;;;;;;21.27;13.80;;;;;;;;;;2073593;28;20276;-62
2022/03/19 01:54:13;;;;;;;17.87;15.03;;;;;;;;;;2073443;28;20552;-64
2022/03/19 01:55:15;;;;;;;22.40;14.43;;;;;;;;;;2073812;28;20624;-65
2022/03/19 01:56:15;;;;;;;24.47;15.17;;;;;;;;;;2073954;28;20176;-63
2022/03/19 01:57:17;;;;;;;17.47;14.43;;;;;;;;;;2073771;28;20549;-65
2022/03/19 01:58:17;;;;;;;18.27;14.00;;;;;;;;;;2065098;28;20284;-66
2022/03/19 01:59:19;;;;;;;23.00;14.53;;;;;;;;;;2063310;28;20182;-65
2022/03/19 02:00:21;;;;;;;21.53;15.03;;;;;;;;;;2073593;28;20180;-63
2022/03/19 02:01:21;;;;;;;22.77;16.07;;;;;;;;;;2064247;28;20902;-62
2022/03/19 02:02:23;;;;;;;19.20;14.83;;;;;;;;;;2063748;28;20182;-65
2022/03/19 02:03:24;;;;;;;17.50;15.03;;;;;;;;;;2071950;28;20588;-64
2022/03/19 02:04:24;;;;;;;25.80;14.77;;;;;;;;;;2073195;28;20193;-60
2022/03/19 02:05:24;;;;;;;27.90;16.03;;;;;;;;;;2073605;28;20595;-62
2022/03/19 02:06:28;;;;;;;23.80;15.07;;;;;;;;;;2073665;28;20196;-62
2022/03/19 02:07:29;;;;;;;21.13;14.13;;;;;;;;;;2073544;28;20184;-62
2022/03/19 02:08:29;;;;;;;18.10;14.57;;;;;;;;;;2073422;28;20228;-62
2022/03/19 02:09:30;;;;;;;19.20;15.10;;;;;;;;;;2073265;28;20173;-62
2022/03/19 02:10:30;;;;;;;19.87;14.50;;;;;;;;;;2073598;28;20208;-65
2022/03/19 02:11:30;;;;;;;20.73;14.87;;;;;;;;;;2073628;28;20185;-65
2022/03/19 02:12:31;;;;;;;22.97;15.17;;;;;;;;;;2073646;28;20161;-64
2022/03/19 02:13:32;;;;;;;21.93;14.60;;;;;;;;;;2073785;28;20199;-62
2022/03/19 02:14:35;;;;;;;26.70;16.00;;;;;;;;;;2056395;28;20166;-63
2022/03/19 02:15:35;;;;;;;24.00;15.00;;;;;;;;;;2057153;28;20182;-64
2022/03/19 02:16:36;;;;;;;23.47;15.60;;;;;;;;;;2064490;28;20244;-63
2022/03/19 02:17:36;;;;;;;21.50;14.53;;;;;;;;;;2073771;28;20208;-62
2022/03/19 02:18:37;;;;;;;23.27;15.00;;;;;;;;;;2064938;28;20295;-62
2022/03/19 02:19:50;;;;;;;19.50;13.70;;;;;;;;;;2065123;28;20180;-65
2022/03/19 02:20:55;;;;;;;20.80;13.80;;;;;;;;;;2066966;28;20189;-62
2022/03/19 02:21:55;;;;;;;20.00;14.57;;;;;;;;;;2065757;28;20205;-62
2022/03/19 02:25:48;;;;;;;20.50;12.73;;;;;;;;;;2064988;28;20193;-62
2022/03/19 02:26:48;;;;;;;19.70;14.17;;;;;;;;;;2065428;28;20216;-64
2022/03/19 02:27:49;;;;;;;19.57;14.63;;;;;;;;;;2064714;28;20194;-65
2022/03/19 02:28:50;;;;;;;21.83;14.93;;;;;;;;;;2056725;28;20466;-64
2022/03/19 02:29:51;;;;;;;19.90;14.60;;;;;;;;;;2056872;28;20185;-64
2022/03/19 02:30:52;;;;;;;23.57;15.00;;;;;;;;;;2070361;28;20530;-64
2022/03/19 02:31:59;;;;;;;21.20;15.20;;;;;;;;;;2073608;28;20172;-63
2022/03/19 02:33:00;;;;;;;25.07;15.03;;;;;;;;;;2073538;28;20191;-65
2022/03/19 02:34:00;;;;;;;17.50;15.03;;;;;;;;;;2073189;28;20208;-59
2022/03/19 02:35:01;;;;;;;24.20;14.43;;;;;;;;;;2073402;28;20176;-64
2022/03/19 02:36:01;;;;;;;25.03;15.20;;;;;;;;;;2073394;28;20187;-67
2022/03/19 02:37:02;;;;;;;22.37;15.50;;;;;;;;;;2064665;28;20184;-65
2022/03/19 02:38:02;;;;;;;20.20;15.27;;;;;;;;;;2064910;28;20598;-62
2022/03/19 02:39:09;;;;;;;21.43;14.53;;;;;;;;;;2073442;28;20545;-61
2022/03/19 02:40:10;;;;;;;19.80;16.17;;;;;;;;;;2073289;28;20216;-62
2022/03/19 02:41:10;;;;;;;22.30;16.27;;;;;;;;;;2073010;28;20204;-65
2022/03/19 02:42:10;;;;;;;27.83;15.90;;;;;;;;;;2056511;28;20237;-64
2022/03/19 02:43:11;;;;;;;19.87;14.20;;;;;;;;;;2056564;28;20197;-64
2022/03/19 02:44:11;;;;;;;17.97;13.90;;;;;;;;;;2073013;28;20188;-63
2022/03/19 02:45:12;;;;;;;20.27;14.70;;;;;;;;;;2073329;28;20211;-63
2022/03/19 02:46:12;;;;;;;18.00;13.83;;;;;;;;;;2056720;28;20221;-63
2022/03/19 02:47:12;;;;;;;18.10;13.73;;;;;;;;;;2056276;28;20253;-65
2022/03/19 02:48:13;;;;;;;20.90;13.33;;;;;;;;;;2070272;28;20240;-60
2022/03/19 02:49:14;;;;;;;20.23;13.80;;;;;;;;;;2073182;28;20169;-64
2022/03/19 02:50:14;;;;;;;22.80;13.60;;;;;;;;;;2073296;28;20180;-65
2022/03/19 02:51:15;;;;;;;18.23;13.23;;;;;;;;;;2072797;28;20236;-65
2022/03/19 02:52:15;;;;;;;17.83;13.83;;;;;;;;;;2073227;28;20164;-62
2022/03/19 02:53:15;;;;;;;18.53;13.67;;;;;;;;;;2073435;28;20181;-61
2022/03/19 02:54:17;;;;;;;15.23;12.77;;;;;;;;;;2064423;28;20248;-62
2022/03/19 02:55:18;;;;;;;22.07;14.80;;;;;;;;;;2064892;28;20231;-64
2022/03/19 02:56:18;;;;;;;18.47;13.20;;;;;;;;;;2064636;28;20321;-62
2022/03/19 02:57:18;;;;;;;17.00;11.53;;;;;;;;;;2064742;28;20540;-63
2022/03/19 02:58:18;;;;;;;17.87;12.87;;;;;;;;;;2073282;28;20538;-62
2022/03/19 02:59:23;;;;;;;17.10;13.33;;;;;;;;;;2063118;28;20272;-61
2022/03/19 03:00:23;;;;;;;18.93;13.23;;;;;;;;;;2057293;28;20547;-62
2022/03/19 03:01:23;;;;;;;17.30;12.13;;;;;;;;;;2064769;28;20201;-62
2022/03/19 03:02:24;;;;;;;16.73;12.27;;;;;;;;;;2056485;28;20203;-61
2022/03/19 03:03:24;;;;;;;22.40;14.20;;;;;;;;;;2064714;28;20572;-64
2022/03/19 03:04:25;;;;;;;18.73;12.53;;;;;;;;;;2072966;28;20233;-63
2022/03/19 03:05:25;;;;;;;20.30;12.03;;;;;;;;;;2064485;28;20181;-62
2022/03/19 03:06:25;;;;;;;17.13;11.93;;;;;;;;;;2064604;28;20190;-66
2022/03/19 03:07:25;;;;;;;16.43;12.43;;;;;;;;;;2064796;28;20736;-64
2022/03/19 03:08:26;;;;;;;18.50;12.23;;;;;;;;;;2073366;28;20362;-62
2022/03/19 03:09:27;;;;;;;19.13;12.10;;;;;;;;;;2073359;28;20242;-62
2022/03/19 03:10:28;;;;;;;12.93;11.30;;;;;;;;;;2073181;28;20649;-59
2022/03/19 03:11:28;;;;;;;21.13;11.23;;;;;;;;;;2073722;28;20562;-63
2022/03/19 03:12:28;;;;;;;18.50;12.40;;;;;;;;;;2074314;28;20507;-64
2022/03/19 03:13:28;;;;;;;18.13;11.87;;;;;;;;;;2074341;28;20547;-60
2022/03/19 03:14:29;;;;;;;16.40;10.97;;;;;;;;;;2073623;28;20244;-62
2022/03/19 03:15:29;;;;;;;21.70;11.90;;;;;;;;;;2074546;28;20541;-62
2022/03/19 03:16:30;;;;;;;19.50;11.67;;;;;;;;;;2075575;28;20268;-61
2022/03/19 03:17:30;;;;;;;15.90;11.67;;;;;;;;;;2071044;28;20181;-64
2022/03/19 03:18:30;;;;;;;19.17;12.23;;;;;;;;;;2075551;28;20184;-60
2022/03/19 03:19:31;;;;;;;19.57;11.77;;;;;;;;;;2076260;28;20183;-62
2022/03/19 03:20:33;;;;;;;16.97;11.63;;;;;;;;;;2075131;28;20212;-62
2022/03/19 03:21:33;;;;;;;17.00;11.27;;;;;;;;;;2076051;28;20542;-61
2022/03/19 03:22:37;;;;;;;15.97;11.73;;;;;;;;;;2075938;28;20200;-60
2022/03/19 03:23:38;;;;;;;18.67;12.33;;;;;;;;;;2059313;28;20683;-61
2022/03/19 03:24:38;;;;;;;13.30;11.03;;;;;;;;;;2057907;28;20184;-62
2022/03/19 03:25:38;;;;;;;19.17;12.13;;;;;;;;;;2075566;28;20246;-61
2022/03/19 03:26:39;;;;;;;20.57;11.50;;;;;;;;;;2076248;28;20629;-62
2022/03/19 03:27:39;;;;;;;15.60;12.30;;;;;;;;;;2075790;28;20533;-65
2022/03/19 03:28:40;;;;;;;24.57;11.63;;;;;;;;;;2075863;28;20562;-64
2022/03/19 03:29:41;;;;;;;21.40;11.57;;;;;;;;;;2075852;28;20192;-60
2022/03/19 03:30:41;;;;;;;12.97;11.20;;;;;;;;;;2075150;28;20165;-64
2022/03/19 03:31:41;;;;;;;19.87;12.23;;;;;;;;;;2073149;28;20191;-64
2022/03/19 03:32:43;;;;;;;19.20;10.67;;;;;;;;;;2073324;28;20559;-62
2022/03/19 03:33:44;;;;;;;20.73;11.83;;;;;;;;;;2073295;28;20579;-66
2022/03/19 03:34:44;;;;;;;14.33;10.93;;;;;;;;;;2073153;28;20165;-60
2022/03/19 03:35:44;;;;;;;14.73;10.67;;;;;;;;;;2073130;28;20919;-62
2022/03/19 03:36:44;;;;;;;23.30;12.60;;;;;;;;;;2064492;28;20176;-64
2022/03/19 03:37:45;;;;;;;18.30;11.23;;;;;;;;;;2064522;28;20178;-61
2022/03/19 03:38:45;;;;;;;13.97;10.87;;;;;;;;;;2066302;28;20245;-63
2022/03/19 03:39:45;;;;;;;16.80;10.90;;;;;;;;;;2066211;28;20586;-65
2022/03/19 03:40:45;;;;;;;19.60;11.60;;;;;;;;;;2066072;28;20281;-66
2022/03/19 03:41:46;;;;;;;13.53;10.90;;;;;;;;;;2066103;28;20202;-60
2022/03/19 03:42:46;;;;;;;18.60;11.63;;;;;;;;;;2066262;28;20199;-62
2022/03/19 03:43:47;;;;;;;19.20;12.47;;;;;;;;;;2066199;28;20567;-62
2022/03/19 03:44:47;;;;;;;14.47;11.70;;;;;;;;;;2074616;28;20548;-66
2022/03/19 03:45:47;;;;;;;17.93;11.43;;;;;;;;;;2068637;28;20173;-63
2022/03/19 03:46:48;;;;;;;19.63;11.17;;;;;;;;;;2065948;28;20180;-65
2022/03/19 03:47:49;;;;;;;18.30;10.93;;;;;;;;;;2065642;28;20165;-64
2022/03/19 03:48:49;;;;;;;12.47;10.97;;;;;;;;;;2074183;28;20173;-65
2022/03/19 03:49:49;;;;;;;20.77;10.67;;;;;;;;;;2065882;28;20229;-62
2022/03/19 03:50:51;;;;;;;13.20;10.57;;;;;;;;;;2065366;28;20249;-65
2022/03/19 03:51:55;;;;;;;16.80;10.87;;;;;;;;;;2074818;28;20205;-62
2022/03/19 03:52:55;;;;;;;16.43;11.60;;;;;;;;;;2074281;28;20176;-65
2022/03/19 03:53:56;;;;;;;18.13;11.10;;;;;;;;;;2074007;28;20579;-63
2022/03/19 03:54:56;;;;;;;18.50;9.73;;;;;;;;;;2074255;28;20204;-63
2022/03/19 03:55:57;;;;;;;13.77;9.70;;;;;;;;;;2074055;28;20749;-65
2022/03/19 03:56:57;;;;;;;18.83;10.47;;;;;;;;;;2065985;28;20173;-62
2022/03/19 03:57:59;;;;;;;13.77;10.67;;;;;;;;;;2065961;28;20242;-63
2022/03/19 03:58:59;;;;;;;14.17;9.93;;;;;;;;;;2072042;28;20176;-63
2022/03/19 04:00:03;;;;;;;13.10;10.43;;;;;;;;;;2073492;28;20176;-62
2022/03/19 04:01:12;;;;;;;14.87;9.80;;;;;;;;;;2074484;28;20677;-64
2022/03/19 04:02:12;;;;;;;13.47;10.63;;;;;;;;;;2074557;28;20183;-62
2022/03/19 04:03:12;;;;;;;15.87;9.80;;;;;;;;;;2074556;28;20176;-65
2022/03/19 04:04:13;;;;;;;14.57;9.67;;;;;;;;;;2074182;28;20239;-65
2022/03/19 04:05:13;;;;;;;16.07;9.97;;;;;;;;;;2074718;28;20169;-63
2022/03/19 04:06:13;;;;;;;14.00;9.67;;;;;;;;;;2065489;28;20185;-62
2022/03/19 04:07:13;;;;;;;16.37;10.07;;;;;;;;;;2065872;28;20236;-62
2022/03/19 04:08:14;;;;;;;15.33;9.50;;;;;;;;;;2065889;28;20201;-61
2022/03/19 04:09:14;;;;;;;13.17;10.33;;;;;;;;;;2074592;28;20171;-63
2022/03/19 04:10:14;;;;;;;10.63;9.57;;;;;;;;;;2074834;28;20177;-62
2022/03/19 04:11:14;;;;;;;13.07;9.93;;;;;;;;;;2074270;28;20200;-61
2022/03/19 04:12:15;;;;;;;14.03;9.53;;;;;;;;;;2057763;28;20182;-64
2022/03/19 04:13:15;;;;;;;17.17;9.67;;;;;;;;;;2057783;28;20178;-64
2022/03/19 04:14:15;;;;;;;13.27;9.10;;;;;;;;;;2065467;28;20173;-62
2022/03/19 04:15:18;;;;;;;14.73;9.60;;;;;;;;;;2057393;28;20178;-66
2022/03/19 04:16:18;;;;;;;16.53;10.80;;;;;;;;;;2063929;28;20237;-64
2022/03/19 04:17:18;;;;;;;16.50;9.13;;;;;;;;;;2074551;28;20263;-64
2022/03/19 04:18:19;;;;;;;11.83;8.93;;;;;;;;;;2066232;28;20182;-63
2022/03/19 04:19:19;;;;;;;14.77;8.63;;;;;;;;;;2066746;28;20173;-63
2022/03/19 04:20:21;;;;;;;13.03;9.27;;;;;;;;;;2075468;28;20258;-62
2022/03/19 04:21:21;;;;;;;11.90;9.37;;;;;;;;;;2075189;28;20681;-63
2022/03/19 04:22:22;;;;;;;17.60;9.10;;;;;;;;;;2075114;28;20173;-61
2022/03/19 04:23:22;;;;;;;12.20;8.90;;;;;;;;;;2075120;28;20197;-66
2022/03/19 04:24:22;;;;;;;15.93;9.53;;;;;;;;;;2074381;28;20177;-63
2022/03/19 04:25:23;;;;;;;12.80;8.90;;;;;;;;;;2074655;28;20222;-62
2022/03/19 04:26:23;;;;;;;15.47;9.23;;;;;;;;;;2074664;28;20256;-65
2022/03/19 04:27:24;;;;;;;13.60;10.20;;;;;;;;;;2065761;28;20581;-63
2022/03/19 04:28:24;;;;;;;15.20;9.10;;;;;;;;;;2065725;28;20717;-63
2022/03/19 04:29:24;;;;;;;13.53;8.53;;;;;;;;;;2074299;28;20835;-63
2022/03/19 04:30:25;;;;;;;17.93;8.93;;;;;;;;;;2074538;28;20165;-64
2022/03/19 04:31:26;;;;;;;16.30;8.83;;;;;;;;;;2074055;28;20211;-64
2022/03/19 04:32:26;;;;;;;14.97;8.80;;;;;;;;;;2074631;28;20548;-62
2022/03/19 04:33:27;;;;;;;15.17;8.67;;;;;;;;;;2074540;28;20604;-62
2022/03/19 04:34:27;;;;;;;16.90;9.20;;;;;;;;;;2074199;28;20161;-64
2022/03/19 04:36:48;;;;;;;17.30;8.83;;;;;;;;;;2074320;28;20251;-61
2022/03/19 04:37:48;;;;;;;13.33;8.07;;;;;;;;;;2074441;28;20606;-65
2022/03/19 04:38:48;;;;;;;12.93;8.63;;;;;;;;;;2074471;28;20181;-60
2022/03/19 04:39:49;;;;;;;15.40;8.83;;;;;;;;;;2074127;28;20566;-62
2022/03/19 04:40:50;;;;;;;12.43;9.23;;;;;;;;;;2074288;28;20664;-66
2022/03/19 04:41:51;;;;;;;14.17;8.17;;;;;;;;;;2065637;28;20166;-64
2022/03/19 04:42:51;;;;;;;13.80;9.00;;;;;;;;;;2065799;28;20181;-64
2022/03/19 04:43:51;;;;;;;15.37;9.03;;;;;;;;;;2074108;28;20197;-66
2022/03/19 04:44:52;;;;;;;13.67;8.93;;;;;;;;;;2074250;28;20215;-65
2022/03/19 04:45:52;;;;;;;17.13;9.43;;;;;;;;;;2074181;28;20176;-64
2022/03/19 04:46:52;;;;;;;14.53;9.70;;;;;;;;;;2074411;28;20562;-64
2022/03/19 04:47:53;;;;;;;19.90;9.43;;;;;;;;;;2074383;28;20526;-62
2022/03/19 04:48:53;;;;;;;16.30;9.33;;;;;;;;;;2074131;28;20172;-63
2022/03/19 04:49:53;;;;;;;13.33;9.00;;;;;;;;;;2074069;28;20172;-62
2022/03/19 04:50:54;;;;;;;12.23;8.67;;;;;;;;;;2073750;28;20211;-65
2022/03/19 04:51:54;;;;;;;13.67;9.13;;;;;;;;;;2105546;23;20291;-56
2022/03/19 04:52:54;;;;;;;14.60;10.27;;;;;;;;;;2066544;28;20239;-57
2022/03/19 04:53:55;;;;;;;16.33;9.50;;;;;;;;;;2074565;28;20231;-57
2022/03/19 04:55:00;;;;;;;14.20;8.97;;;;;;;;;;2075480;28;20187;-58
2022/03/19 04:56:00;;;;;;;17.77;8.93;;;;;;;;;;2066210;28;20265;-61
2022/03/19 04:57:02;;;;;;;15.60;8.87;;;;;;;;;;2058794;28;20185;-54
2022/03/19 04:58:03;;;;;;;10.87;9.00;;;;;;;;;;2067120;28;20201;-53
2022/03/19 04:59:03;;;;;;;22.17;10.40;;;;;;;;;;2075548;28;20173;-55
2022/03/19 05:00:05;;;;;;;17.53;9.97;;;;;;;;;;2074824;28;20172;-54
2022/03/19 05:01:05;;;;;;;11.80;8.70;;;;;;;;;;2074137;28;20204;-53
2022/03/19 05:02:05;;;;;;;14.50;9.37;;;;;;;;;;2075925;28;20241;-54
2022/03/19 05:03:06;;;;;;;14.03;9.73;;;;;;;;;;2076642;28;20208;-53
2022/03/19 05:04:06;;;;;;;14.17;8.77;;;;;;;;;;2069417;28;20264;-54
2022/03/19 05:05:07;;;;;;;16.33;9.03;;;;;;;;;;2068808;28;20192;-56
2022/03/19 05:06:07;;;;;;;16.67;9.40;;;;;;;;;;2078088;28;20260;-54
2022/03/19 05:07:07;;;;;;;15.20;9.57;;;;;;;;;;2078106;28;20641;-53
2022/03/19 05:08:07;;;;;;;14.87;9.20;;;;;;;;;;2077244;28;20236;-53
2022/03/19 05:11:46;;;;;;;16.60;8.83;;;;;;;;;;2077138;28;20188;-53
2022/03/19 05:12:47;;;;;;;14.30;9.13;;;;;;;;;;2076881;28;20764;-57
2022/03/19 05:13:53;;;;;;;15.73;9.57;;;;;;;;;;2077948;28;20177;-56
2022/03/19 05:14:53;;;;;;;18.20;10.27;;;;;;;;;;2078757;28;20170;-57
2022/03/19 05:15:53;;;;;;;18.07;10.20;;;;;;;;;;2078448;28;20244;-58
2022/03/19 05:16:53;;;;;;;20.17;10.00;;;;;;;;;;2077978;28;20634;-53
2022/03/19 05:17:54;;;;;;;20.80;10.30;;;;;;;;;;2078803;28;20184;-54
2022/03/19 05:18:54;;;;;;;15.93;9.57;;;;;;;;;;2078121;28;20165;-57
2022/03/19 05:19:55;;;;;;;15.70;10.37;;;;;;;;;;2069245;28;20196;-56
2022/03/19 05:20:56;;;;;;;15.23;10.17;;;;;;;;;;2068597;28;20209;-54
2022/03/19 05:21:57;;;;;;;18.50;9.07;;;;;;;;;;2076694;28;20276;-54
2022/03/19 05:22:57;;;;;;;16.70;9.67;;;;;;;;;;2068412;28;20682;-55
2022/03/19 05:23:57;;;;;;;18.20;9.37;;;;;;;;;;2068996;28;20169;-56
2022/03/19 05:24:58;;;;;;;16.67;9.63;;;;;;;;;;2068174;28;20225;-56
2022/03/19 05:25:58;;;;;;;17.63;10.07;;;;;;;;;;2066322;28;20178;-55
2022/03/19 05:26:58;;;;;;;15.13;9.80;;;;;;;;;;2076834;28;20188;-55
2022/03/19 05:27:59;;;;;;;16.30;8.97;;;;;;;;;;2078756;28;20272;-55
2022/03/19 05:28:59;;;;;;;18.43;10.50;;;;;;;;;;2082359;28;20188;-58
2022/03/19 05:29:59;;;;;;;18.67;11.10;;;;;;;;;;2082411;28;20161;-56
2022/03/19 05:31:01;;;;;;;16.33;9.50;;;;;;;;;;2074057;28;20256;-58
2022/03/19 05:32:01;;;;;;;14.93;9.93;;;;;;;;;;2073636;28;20189;-55
2022/03/19 05:33:01;;;;;;;15.13;9.67;;;;;;;;;;2082079;28;20181;-57
2022/03/19 05:35:21;;;;;;;17.17;10.03;;;;;;;;;;2081676;28;20212;-54
2022/03/19 05:36:21;;;;;;;15.17;9.77;;;;;;;;;;2081138;28;20185;-53
2022/03/19 05:37:22;;;;;;;21.63;9.90;;;;;;;;;;2080392;28;20185;-55
2022/03/19 05:38:22;;;;;;;16.00;10.03;;;;;;;;;;2081198;28;20199;-55
2022/03/19 05:39:22;;;;;;;16.93;9.70;;;;;;;;;;2078476;28;20300;-57
2022/03/19 05:40:24;;;;;;;19.00;9.83;;;;;;;;;;2079267;28;20180;-58
2022/03/19 05:41:24;;;;;;;17.23;10.60;;;;;;;;;;2076018;28;20181;-55
2022/03/19 05:42:24;;;;;;;15.40;9.87;;;;;;;;;;2076556;28;20173;-57
2022/03/19 05:43:25;;;;;;;16.10;10.10;;;;;;;;;;2077222;28;20168;-53
2022/03/19 05:44:26;;;;;;;15.20;9.53;;;;;;;;;;2077527;28;20176;-56
2022/03/19 05:45:26;;;;;;;19.03;10.23;;;;;;;;;;2077594;28;20208;-54
2022/03/19 05:46:26;;;;;;;19.00;10.17;;;;;;;;;;2076952;28;20180;-52
2022/03/19 05:47:27;;;;;;;19.20;9.60;;;;;;;;;;2077672;28;20452;-54
2022/03/19 05:48:27;;;;;;;17.97;9.70;;;;;;;;;;2067913;28;20276;-58
2022/03/19 05:49:28;;;;;;;17.50;8.57;;;;;;;;;;2068185;28;20211;-59
2022/03/19 05:50:29;;;;;;;15.33;9.73;;;;;;;;;;2076011;28;20177;-56
2022/03/19 05:51:29;;;;;;;15.83;10.23;;;;;;;;;;2075591;28;20193;-57
2022/03/19 05:52:29;;;;;;;14.57;8.83;;;;;;;;;;2075559;28;20235;-57
2022/03/19 05:53:30;;;;;;;16.87;10.33;;;;;;;;;;2069363;28;20165;-60
2022/03/19 05:54:30;;;;;;;19.40;9.70;;;;;;;;;;2073028;28;20262;-58
2022/03/19 05:55:30;;;;;;;14.77;9.80;;;;;;;;;;2074018;28;20200;-57
2022/03/19 05:56:30;;;;;;;18.70;9.67;;;;;;;;;;2065317;28;20173;-56
2022/03/19 05:57:30;;;;;;;19.50;9.90;;;;;;;;;;2064984;28;20185;-56
2022/03/19 05:58:31;;;;;;;14.40;9.63;;;;;;;;;;2073583;28;20169;-56
2022/03/19 05:59:31;;;;;;;16.63;10.37;;;;;;;;;;2065202;28;20320;-57
2022/03/19 06:00:31;;;;;;;15.10;9.77;;;;;;;;;;2062639;28;20169;-56
2022/03/19 06:01:31;;;;;;;15.40;10.13;;;;;;;;;;2073373;28;20239;-57
2022/03/19 06:02:32;;;;;;;16.07;9.23;;;;;;;;;;2073787;28;20177;-55
2022/03/19 06:03:32;;;;;;;16.10;8.53;;;;;;;;;;2073837;28;20609;-59
2022/03/19 06:04:33;;;;;;;16.13;9.43;;;;;;;;;;2073550;28;20638;-55